»·PEaware :: N2RF KSMO-KMYF

N2RF :: KSMO-KMYF

FLIGHT INFORMATION

Flight Status: Arrived
Operator: Privately registered:
United States
More flights under this callsign
Pilot: Max W. (2591)
Aircraft: BEECH AIRCRAFT BARON
(BE58)
More flights by this aircraft type
Origin: KSMO Santa Monica Mun
United States
Destination: KMYF Montgomery
United States
More flights between these airports :: More routes between these airports
Route: SMO SMO125 V64 V363 DANAH V23 MZB
File this flight plan on PilotEdge
Remarks: GOOD EVENING GOLDSY. PLEASURE TO HAVE THE BEST CANADAIN CONTROLLER IN THE BIZ ON TONIGHT!
Altitude:
(Current/Filed)
5,000ft
Speed:
(Current/Filed)
190kts
Departed: 21-Aug-19 05:23 PM
Arrived: 21-Aug-19 06:03 PM
Distance/Time
Traveled:
98nm/0:40
Distance/Time
To Go:
Arrived

Flight Plot

Page will automatically refresh every two minutes.


Map Options




Map Legend


Flown Route
Filed Route
Departure Airport
Arrival Airport
Navaid (VOR, NDB)
Fix

Horizontal Profiles

Position Reports

Time Latitude Longitude Heading Altitude Ground
Speed
21-Aug-19 17:00 34.017591 -118.445208 330 135ft 0kts
21-Aug-19 17:01 34.017591 -118.445208 330 135ft 0kts
21-Aug-19 17:02 34.017591 -118.445208 330 135ft 0kts
21-Aug-19 17:03 34.017591 -118.445208 330 135ft 0kts
21-Aug-19 17:04 34.017591 -118.445208 330 135ft 0kts
21-Aug-19 17:05 34.017591 -118.445208 330 135ft 0kts
21-Aug-19 17:06 34.017591 -118.445208 330 135ft 0kts
21-Aug-19 17:07 34.017591 -118.445208 330 135ft 0kts
21-Aug-19 17:08 34.017591 -118.445208 330 135ft 0kts
21-Aug-19 17:09 34.017591 -118.445208 330 135ft 0kts
21-Aug-19 17:10 34.017591 -118.445208 330 135ft 0kts
21-Aug-19 17:11 34.017591 -118.445208 330 135ft 0kts
21-Aug-19 17:12 34.017591 -118.445208 330 135ft 0kts
21-Aug-19 17:13 34.017591 -118.445208 330 135ft 0kts
21-Aug-19 17:14 34.017591 -118.445208 330 135ft 0kts
21-Aug-19 17:15 34.017591 -118.445208 330 135ft 0kts
21-Aug-19 17:16 34.017591 -118.445208 330 135ft 0kts
21-Aug-19 17:17 34.017591 -118.445208 330 135ft 0kts
21-Aug-19 17:18 34.017611 -118.445229 305 135ft 3kts
21-Aug-19 17:19 34.018881 -118.445314 320 135ft 14kts
21-Aug-19 17:20 34.018824 -118.446827 315 135ft 0kts
21-Aug-19 17:21 34.018889 -118.446903 316 135ft 7kts
21-Aug-19 17:22 34.002499 -118.467324 225 774ft 140kts
21-Aug-19 17:23 33.979910 -118.509719 263 1917ft 169kts
21-Aug-19 17:24 33.976793 -118.566791 279 2905ft 172kts
21-Aug-19 17:25 34.015241 -118.590784 19 3888ft 183kts
21-Aug-19 17:26 34.038106 -118.541760 108 4875ft 181kts
21-Aug-19 17:27 34.017573 -118.481531 115 5040ft 204kts
21-Aug-19 17:28 33.991425 -118.420965 143 5033ft 199kts
21-Aug-19 17:29 33.942930 -118.391486 149 5036ft 198kts
21-Aug-19 17:30 33.898212 -118.354092 146 5035ft 200kts
21-Aug-19 17:31 33.853013 -118.314044 145 5032ft 201kts
21-Aug-19 17:32 33.807981 -118.273515 145 5028ft 201kts
21-Aug-19 17:33 33.763376 -118.233228 146 5024ft 200kts
21-Aug-19 17:34 33.759884 -118.180813 52 5025ft 204kts
21-Aug-19 17:35 33.766348 -118.122696 129 5024ft 196kts
21-Aug-19 17:36 33.732015 -118.071771 131 5018ft 195kts
21-Aug-19 17:37 33.697948 -118.021241 131 5020ft 194kts
21-Aug-19 17:38 33.665650 -117.972995 131 5022ft 195kts
21-Aug-19 17:39 33.631688 -117.922323 131 5024ft 195kts
21-Aug-19 17:40 33.597545 -117.871449 131 5026ft 195kts
21-Aug-19 17:41 33.563434 -117.820695 131 5027ft 195kts
21-Aug-19 17:42 33.529187 -117.770002 130 5029ft 196kts
21-Aug-19 17:43 33.496463 -117.721252 131 5033ft 197kts
21-Aug-19 17:44 33.459256 -117.672915 137 5038ft 198kts
21-Aug-19 17:45 33.419690 -117.626507 137 5044ft 200kts
21-Aug-19 17:46 33.379587 -117.579627 137 5045ft 202kts
21-Aug-19 17:47 33.339544 -117.532902 137 5025ft 200kts
21-Aug-19 17:48 33.299842 -117.486627 137 5035ft 198kts
21-Aug-19 17:49 33.260435 -117.440739 137 5040ft 198kts
21-Aug-19 17:50 33.214995 -117.406638 161 5041ft 194kts
21-Aug-19 17:51 33.163940 -117.385320 162 5043ft 195kts
21-Aug-19 17:52 33.112473 -117.363729 162 5046ft 196kts
21-Aug-19 17:53 33.060978 -117.342087 162 5045ft 197kts
21-Aug-19 17:54 33.009183 -117.320359 162 5046ft 198kts
21-Aug-19 17:55 32.957248 -117.298590 162 5047ft 198kts
21-Aug-19 17:56 32.901222 -117.275192 162 4065ft 219kts
21-Aug-19 17:57 32.859275 -117.235556 112 4050ft 205kts
21-Aug-19 17:58 32.837719 -117.171492 112 3643ft 218kts
21-Aug-19 17:59 32.815103 -117.102995 112 2747ft 224kts
21-Aug-19 18:00 32.795519 -117.095789 313 1864ft 107kts
21-Aug-19 18:01 32.809488 -117.122569 292 760ft 94kts
21-Aug-19 18:02 32.815936 -117.140459 248 404ft 12kts
21-Aug-19 18:03 32.813663 -117.140687 67 404ft 0kts
21-Aug-19 18:04 32.813663 -117.140687 67 404ft 0kts
21-Aug-19 18:05 32.813663 -117.140687 67 404ft 0kts
21-Aug-19 18:06 32.813663 -117.140687 67 404ft 0kts
21-Aug-19 18:07 32.813663 -117.140687 67 404ft 0kts
21-Aug-19 18:08 32.813663 -117.140687 67 404ft 0kts
21-Aug-19 18:09 32.813663 -117.140687 67 404ft 0kts
21-Aug-19 18:10 32.813663 -117.140687 67 404ft 0kts
21-Aug-19 18:11 32.813663 -117.140687 67 404ft 0kts
21-Aug-19 18:12 32.813663 -117.140687 67 404ft 0kts
21-Aug-19 18:13 32.813663 -117.140687 67 404ft 0kts
21-Aug-19 18:14 32.813663 -117.140687 67 404ft 0kts
21-Aug-19 18:15 32.813663 -117.140687 67 404ft 0kts
21-Aug-19 18:16 32.813663 -117.140687 67 404ft 0kts

Navigation Log

Ident Type
Flight plan parsing failed, navigation log unavailable